CheckWX is a tool to help pilots better visualize weather data.  It is not intended as a substitute for an official pre-flight weather briefing.

15:36:19 UTC

KRQE METAR
Window Rock Airport
Window Rock, Arizona, USA
Current

43 mins ago

KRQE 261453Z AUTO 00000KT 10SM CLR 12/M02 A3000 RMK AO2 SLP076 T01221022 58004
Observed
May-26 @ 14:53 UTC
Visibility
10 SM
Flight Rules
VFR
Cloud Levels
  • Clear skies
Temperature
12°C / 54°F
Dewpoint
-2°C / 28°F
Humidity
38%
Altimeter
30" Hg
Pressure
1015.92 hPa
Previous

2 hours ago

KRQE 261353Z AUTO 00000KT 10SM CLR 07/M03 A3001 RMK AO2 SLP079 T00671028
Observed
May-26 @ 13:53 UTC
Visibility
10 SM
Flight Rules
VFR
Cloud Levels
  • Clear skies
Temperature
C / 45°F
Dewpoint
-3°C / 27°F
Humidity
49%
Altimeter
30.01" Hg
Pressure
1016.22 hPa
Previous

3 hours ago

KRQE 261253Z AUTO 00000KT 10SM CLR 02/M04 A3002 RMK AO2 SLP092 T00171039
Observed
May-26 @ 12:53 UTC
Visibility
10 SM
Flight Rules
VFR
Cloud Levels
  • Clear skies
Temperature
C / 36°F
Dewpoint
-4°C / 25°F
Humidity
65%
Altimeter
30.02" Hg
Pressure
1016.62 hPa